Terminal Aerodrome Forecast
Issued by NWS Portland, OR

Home | Current Version | Previous Version | Text Only | Print | Product List | Glossary On
Versions: 1 2 3 4 5 6 7 8 9 10 11 12 13 14 15 16 17 18 19 20 21 22 23 24 25 26 27 28 29
000
FTUS46 KPQR 270540
TAFEUG
TAF
KEUG 270540Z 2706/2806 16006KT 6SM -RA BR SCT025 BKN035
     FM270700 17007KT 4SM -RA BR SCT015 OVC025
     FM271500 18007KT 4SM -RA BR BKN009 OVC020
     FM272200 21008KT 6SM -RA BR OVC015=

USA.gov is the U.S. government's official web portal to all federal, state and local government web resources and services.